sensor_id;sensor_type;location;lat;lon;timestamp;pressure;altitude;pressure_sealevel;temperature;humidity
50684;BME280;36654;45.042;38.994;2023-08-12T00:00:19;100953.00;;;26.55;71.27
50684;BME280;36654;45.042;38.994;2023-08-12T00:02:45;100961.16;;;26.55;70.84
50684;BME280;36654;45.042;38.994;2023-08-12T00:05:11;100966.59;;;26.55;71.46
50684;BME280;36654;45.042;38.994;2023-08-12T00:07:39;100963.53;;;26.61;71.38
50684;BME280;36654;45.042;38.994;2023-08-12T00:10:08;100942.44;;;26.49;71.37
50684;BME280;36654;45.042;38.994;2023-08-12T00:12:35;100944.19;;;26.50;71.46
50684;BME280;36654;45.042;38.994;2023-08-12T00:15:02;100968.09;;;26.60;71.50
50684;BME280;36654;45.042;38.994;2023-08-12T00:17:28;100964.50;;;26.60;71.19
50684;BME280;36654;45.042;38.994;2023-08-12T00:19:54;100961.22;;;26.53;71.05
50684;BME280;36654;45.042;38.994;2023-08-12T00:22:19;100974.94;;;26.50;71.15
50684;BME280;36654;45.042;38.994;2023-08-12T00:24:45;100973.09;;;26.51;70.96
50684;BME280;36654;45.042;38.994;2023-08-12T00:27:11;100976.97;;;26.46;70.96
50684;BME280;36654;45.042;38.994;2023-08-12T00:29:36;100978.06;;;26.42;70.76
50684;BME280;36654;45.042;38.994;2023-08-12T00:32:02;100985.13;;;26.46;71.40
50684;BME280;36654;45.042;38.994;2023-08-12T00:34:28;100982.56;;;26.43;71.38
50684;BME280;36654;45.042;38.994;2023-08-12T00:36:54;100988.00;;;26.43;71.15
50684;BME280;36654;45.042;38.994;2023-08-12T00:39:20;100994.44;;;26.41;71.04
50684;BME280;36654;45.042;38.994;2023-08-12T00:41:45;100988.28;;;26.37;70.79
50684;BME280;36654;45.042;38.994;2023-08-12T00:44:12;100991.00;;;26.37;70.61
50684;BME280;36654;45.042;38.994;2023-08-12T00:46:41;101001.88;;;26.37;70.43
50684;BME280;36654;45.042;38.994;2023-08-12T00:49:08;101016.28;;;26.39;70.80
50684;BME280;36654;45.042;38.994;2023-08-12T00:51:34;101012.81;;;26.36;70.64
50684;BME280;36654;45.042;38.994;2023-08-12T00:54:02;101011.22;;;26.32;70.53
50684;BME280;36654;45.042;38.994;2023-08-12T00:56:30;101023.56;;;26.39;70.47
50684;BME280;36654;45.042;38.994;2023-08-12T00:58:57;101032.47;;;26.41;70.63
50684;BME280;36654;45.042;38.994;2023-08-12T01:01:23;100963.13;;;25.97;70.80
50684;BME280;36654;45.042;38.994;2023-08-12T01:03:50;101040.00;;;26.36;70.90
50684;BME280;36654;45.042;38.994;2023-08-12T01:06:16;101040.97;;;26.35;70.54
50684;BME280;36654;45.042;38.994;2023-08-12T01:08:42;101037.59;;;26.30;70.42
50684;BME280;36654;45.042;38.994;2023-08-12T01:16:12;101021.09;;;26.15;70.85
50684;BME280;36654;45.042;38.994;2023-08-12T01:18:39;101035.19;;;26.23;70.77
50684;BME280;36654;45.042;38.994;2023-08-12T01:21:08;101046.06;;;26.23;70.64
50684;BME280;36654;45.042;38.994;2023-08-12T01:23:38;101006.56;;;25.97;70.76
50684;BME280;36654;45.042;38.994;2023-08-12T01:26:04;101046.28;;;26.19;70.70
50684;BME280;36654;45.042;38.994;2023-08-12T01:28:30;101053.47;;;26.20;70.41
50684;BME280;36654;45.042;38.994;2023-08-12T01:30:59;101025.97;;;26.09;70.86
50684;BME280;36654;45.042;38.994;2023-08-12T01:33:35;101047.38;;;26.15;70.91
50684;BME280;36654;45.042;38.994;2023-08-12T01:36:12;101056.50;;;26.14;71.10
50684;BME280;36654;45.042;38.994;2023-08-12T01:38:41;101044.81;;;26.12;71.30
50684;BME280;36654;45.042;38.994;2023-08-12T01:41:10;101053.84;;;26.12;71.27
50684;BME280;36654;45.042;38.994;2023-08-12T01:43:38;101008.78;;;25.89;71.08
50684;BME280;36654;45.042;38.994;2023-08-12T01:46:03;101042.47;;;26.04;71.65
50684;BME280;36654;45.042;38.994;2023-08-12T01:48:29;101043.56;;;26.00;71.61
50684;BME280;36654;45.042;38.994;2023-08-12T01:50:55;101040.19;;;25.95;71.40
50684;BME280;36654;45.042;38.994;2023-08-12T01:53:20;101047.31;;;25.97;71.60
50684;BME280;36654;45.042;38.994;2023-08-12T01:55:47;101039.47;;;25.91;71.72
50684;BME280;36654;45.042;38.994;2023-08-12T01:58:13;101051.44;;;25.87;71.84
50684;BME280;36654;45.042;38.994;2023-08-12T02:00:38;101047.00;;;25.85;72.17
50684;BME280;36654;45.042;38.994;2023-08-12T02:03:04;101050.63;;;25.85;72.02
50684;BME280;36654;45.042;38.994;2023-08-12T02:05:30;101013.66;;;25.62;72.19
50684;BME280;36654;45.042;38.994;2023-08-12T02:07:55;101046.13;;;25.84;71.99
50684;BME280;36654;45.042;38.994;2023-08-12T02:10:21;101036.34;;;25.80;72.13
50684;BME280;36654;45.042;38.994;2023-08-12T02:12:47;101048.09;;;25.80;72.01
50684;BME280;36654;45.042;38.994;2023-08-12T02:15:12;101047.22;;;25.80;73.04
50684;BME280;36654;45.042;38.994;2023-08-12T02:17:38;101046.69;;;25.72;73.44
50684;BME280;36654;45.042;38.994;2023-08-12T02:20:04;101008.75;;;25.51;73.34
50684;BME280;36654;45.042;38.994;2023-08-12T02:22:30;101043.16;;;25.70;73.70
50684;BME280;36654;45.042;38.994;2023-08-12T02:24:55;101044.13;;;25.69;73.74
50684;BME280;36654;45.042;38.994;2023-08-12T02:27:21;101047.63;;;25.71;73.89
50684;BME280;36654;45.042;38.994;2023-08-12T02:29:47;101042.34;;;25.68;73.81
50684;BME280;36654;45.042;38.994;2023-08-12T02:32:12;101026.22;;;25.65;73.90
50684;BME280;36654;45.042;38.994;2023-08-12T02:34:38;101038.91;;;25.64;73.93
50684;BME280;36654;45.042;38.994;2023-08-12T02:37:04;101031.72;;;25.63;73.75
50684;BME280;36654;45.042;38.994;2023-08-12T02:39:29;101018.66;;;25.52;73.34
50684;BME280;36654;45.042;38.994;2023-08-12T02:41:55;101047.94;;;25.65;73.78
50684;BME280;36654;45.042;38.994;2023-08-12T02:44:21;101031.78;;;25.61;73.26
50684;BME280;36654;45.042;38.994;2023-08-12T02:46:46;101042.25;;;25.90;73.19
50684;BME280;36654;45.042;38.994;2023-08-12T02:49:12;101051.63;;;26.20;72.22
50684;BME280;36654;45.042;38.994;2023-08-12T02:51:37;101050.88;;;26.55;71.56
50684;BME280;36654;45.042;38.994;2023-08-12T02:54:03;101034.91;;;26.83;70.23
50684;BME280;36654;45.042;38.994;2023-08-12T02:56:29;101047.56;;;27.19;67.98
50684;BME280;36654;45.042;38.994;2023-08-12T02:58:54;101048.16;;;27.42;67.29
50684;BME280;36654;45.042;38.994;2023-08-12T03:01:21;101055.25;;;27.62;66.77
50684;BME280;36654;45.042;38.994;2023-08-12T03:03:46;101048.38;;;27.70;65.77
50684;BME280;36654;45.042;38.994;2023-08-12T03:06:12;101058.38;;;27.87;65.50
50684;BME280;36654;45.042;38.994;2023-08-12T03:08:37;101062.63;;;28.09;64.51
50684;BME280;36654;45.042;38.994;2023-08-12T03:11:03;101063.22;;;28.30;63.90
50684;BME280;36654;45.042;38.994;2023-08-12T03:13:30;101040.19;;;28.35;63.19
50684;BME280;36654;45.042;38.994;2023-08-12T03:15:56;101049.53;;;28.63;63.28
50684;BME280;36654;45.042;38.994;2023-08-12T03:18:22;101063.91;;;28.81;62.21
50684;BME280;36654;45.042;38.994;2023-08-12T03:20:47;101058.56;;;28.94;62.11
50684;BME280;36654;45.042;38.994;2023-08-12T03:23:14;101063.81;;;29.13;61.44
50684;BME280;36654;45.042;38.994;2023-08-12T03:25:39;101068.16;;;29.31;60.64
50684;BME280;36654;45.042;38.994;2023-08-12T03:28:05;101067.75;;;29.37;60.40
50684;BME280;36654;45.042;38.994;2023-08-12T03:30:31;101073.59;;;29.31;60.11
50684;BME280;36654;45.042;38.994;2023-08-12T03:32:57;101067.56;;;29.40;60.24
50684;BME280;36654;45.042;38.994;2023-08-12T03:35:22;101076.63;;;29.55;59.77
50684;BME280;36654;45.042;38.994;2023-08-12T03:37:48;101092.53;;;29.63;59.38
50684;BME280;36654;45.042;38.994;2023-08-12T03:40:14;101086.13;;;29.64;58.96
50684;BME280;36654;45.042;38.994;2023-08-12T03:42:39;101084.22;;;29.66;59.41
50684;BME280;36654;45.042;38.994;2023-08-12T03:45:06;101090.34;;;29.70;58.79
50684;BME280;36654;45.042;38.994;2023-08-12T03:47:31;101083.13;;;29.69;58.55
50684;BME280;36654;45.042;38.994;2023-08-12T03:49:57;101084.22;;;29.66;58.55
50684;BME280;36654;45.042;38.994;2023-08-12T03:52:23;101095.13;;;29.66;58.84
50684;BME280;36654;45.042;38.994;2023-08-12T03:54:48;101098.78;;;29.65;58.76
50684;BME280;36654;45.042;38.994;2023-08-12T03:57:14;101097.84;;;29.80;58.68
50684;BME280;36654;45.042;38.994;2023-08-12T03:59:41;101097.75;;;29.82;58.85
50684;BME280;36654;45.042;38.994;2023-08-12T04:02:07;101092.38;;;29.80;58.47
50684;BME280;36654;45.042;38.994;2023-08-12T04:04:32;101092.22;;;29.83;58.63
50684;BME280;36654;45.042;38.994;2023-08-12T04:06:58;101098.41;;;30.00;58.51
50684;BME280;36654;45.042;38.994;2023-08-12T04:09:23;101097.47;;;30.01;58.36
50684;BME280;36654;45.042;38.994;2023-08-12T04:11:49;101084.38;;;29.92;58.50
50684;BME280;36654;45.042;38.994;2023-08-12T04:14:14;101116.56;;;30.29;58.05
50684;BME280;36654;45.042;38.994;2023-08-12T04:16:40;101111.06;;;30.58;57.18
50684;BME280;36654;45.042;38.994;2023-08-12T04:19:06;101106.72;;;30.68;56.44
50684;BME280;36654;45.042;38.994;2023-08-12T04:21:31;101125.66;;;30.99;56.10
50684;BME280;36654;45.042;38.994;2023-08-12T04:23:57;101120.78;;;31.16;55.13
50684;BME280;36654;45.042;38.994;2023-08-12T04:26:22;101121.66;;;31.30;54.88
50684;BME280;36654;45.042;38.994;2023-08-12T04:28:48;101093.59;;;30.73;54.96
50684;BME280;36654;45.042;38.994;2023-08-12T04:31:14;101122.00;;;30.58;55.91
50684;BME280;36654;45.042;38.994;2023-08-12T04:33:39;101121.25;;;30.42;56.37
50684;BME280;36654;45.042;38.994;2023-08-12T04:36:05;101146.44;;;30.47;56.96
50684;BME280;36654;45.042;38.994;2023-08-12T04:38:31;101129.63;;;30.53;56.77
50684;BME280;36654;45.042;38.994;2023-08-12T04:40:57;101111.53;;;30.78;55.79
50684;BME280;36654;45.042;38.994;2023-08-12T04:43:22;101128.16;;;30.74;55.71
50684;BME280;36654;45.042;38.994;2023-08-12T04:45:48;101118.88;;;31.04;54.95
50684;BME280;36654;45.042;38.994;2023-08-12T04:48:14;101134.00;;;31.50;53.75
50684;BME280;36654;45.042;38.994;2023-08-12T04:50:42;101130.59;;;31.85;52.25
50684;BME280;36654;45.042;38.994;2023-08-12T04:53:07;101128.66;;;31.99;51.98
50684;BME280;36654;45.042;38.994;2023-08-12T04:55:34;101103.44;;;31.94;51.16
50684;BME280;36654;45.042;38.994;2023-08-12T04:58:01;101122.03;;;32.28;50.59
50684;BME280;36654;45.042;38.994;2023-08-12T05:00:27;101133.59;;;32.57;49.59
50684;BME280;36654;45.042;38.994;2023-08-12T05:02:53;101128.22;;;32.79;48.88
50684;BME280;36654;45.042;38.994;2023-08-12T05:05:19;101125.06;;;32.97;48.45
50684;BME280;36654;45.042;38.994;2023-08-12T05:07:45;101114.69;;;33.13;47.79
50684;BME280;36654;45.042;38.994;2023-08-12T05:10:15;101116.03;;;33.43;47.73
50684;BME280;36654;45.042;38.994;2023-08-12T05:12:44;101115.09;;;33.78;46.57
50684;BME280;36654;45.042;38.994;2023-08-12T05:15:11;101123.34;;;34.00;45.45
50684;BME280;36654;45.042;38.994;2023-08-12T05:17:37;101112.09;;;34.14;45.30
50684;BME280;36654;45.042;38.994;2023-08-12T05:20:03;101112.84;;;33.94;45.10
50684;BME280;36654;45.042;38.994;2023-08-12T05:22:32;101094.34;;;33.96;44.67
50684;BME280;36654;45.042;38.994;2023-08-12T05:24:58;101127.09;;;34.33;44.40
50684;BME280;36654;45.042;38.994;2023-08-12T05:27:26;101124.84;;;34.38;43.66
50684;BME280;36654;45.042;38.994;2023-08-12T05:29:52;101123.84;;;34.39;44.01
50684;BME280;36654;45.042;38.994;2023-08-12T05:32:17;101131.38;;;34.26;44.28
50684;BME280;36654;45.042;38.994;2023-08-12T05:34:43;101084.84;;;33.66;44.91
50684;BME280;36654;45.042;38.994;2023-08-12T05:37:09;101101.28;;;33.44;45.42
50684;BME280;36654;45.042;38.994;2023-08-12T05:39:34;101132.50;;;33.43;45.67
50684;BME280;36654;45.042;38.994;2023-08-12T05:42:00;101088.59;;;32.95;46.64
50684;BME280;36654;45.042;38.994;2023-08-12T05:44:25;101127.00;;;33.43;46.10
50684;BME280;36654;45.042;38.994;2023-08-12T05:46:54;101132.44;;;33.67;45.04
50684;BME280;36654;45.042;38.994;2023-08-12T05:49:19;101094.03;;;33.43;44.93
50684;BME280;36654;45.042;38.994;2023-08-12T05:51:45;101130.38;;;33.35;44.70
50684;BME280;36654;45.042;38.994;2023-08-12T05:54:10;101156.72;;;32.90;46.44
50684;BME280;36654;45.042;38.994;2023-08-12T05:56:36;101115.44;;;32.17;46.98
50684;BME280;36654;45.042;38.994;2023-08-12T05:59:04;101147.06;;;31.97;47.99
50684;BME280;36654;45.042;38.994;2023-08-12T06:01:29;101144.88;;;32.02;49.04
50684;BME280;36654;45.042;38.994;2023-08-12T06:03:55;101122.75;;;32.06;48.86
50684;BME280;36654;45.042;38.994;2023-08-12T06:06:21;101141.78;;;32.20;48.25
50684;BME280;36654;45.042;38.994;2023-08-12T06:08:48;101151.63;;;32.22;48.25
50684;BME280;36654;45.042;38.994;2023-08-12T06:11:13;101155.03;;;32.39;48.28
50684;BME280;36654;45.042;38.994;2023-08-12T06:13:39;101143.72;;;32.43;48.76
50684;BME280;36654;45.042;38.994;2023-08-12T06:16:04;101155.03;;;32.39;48.48
50684;BME280;36654;45.042;38.994;2023-08-12T06:18:30;101157.59;;;32.04;48.67
50684;BME280;36654;45.042;38.994;2023-08-12T06:20:56;101126.53;;;31.39;48.58
50684;BME280;36654;45.042;38.994;2023-08-12T06:23:21;101168.22;;;31.30;49.67
50684;BME280;36654;45.042;38.994;2023-08-12T06:25:47;101175.44;;;31.18;50.33
50684;BME280;36654;45.042;38.994;2023-08-12T06:28:12;101138.84;;;31.06;51.39
50684;BME280;36654;45.042;38.994;2023-08-12T06:30:38;101174.81;;;31.00;51.79
50684;BME280;36654;45.042;38.994;2023-08-12T06:33:04;101170.69;;;31.07;51.99
50684;BME280;36654;45.042;38.994;2023-08-12T06:35:29;101138.34;;;31.00;51.62
50684;BME280;36654;45.042;38.994;2023-08-12T06:37:55;101166.78;;;31.11;51.22
50684;BME280;36654;45.042;38.994;2023-08-12T06:40:21;101169.28;;;31.14;50.88
50684;BME280;36654;45.042;38.994;2023-08-12T06:42:47;101171.06;;;31.15;50.80
50684;BME280;36654;45.042;38.994;2023-08-12T06:45:12;101178.75;;;31.23;50.40
50684;BME280;36654;45.042;38.994;2023-08-12T06:47:38;101177.00;;;31.35;50.53
50684;BME280;36654;45.042;38.994;2023-08-12T06:50:04;101181.72;;;31.33;50.79
50684;BME280;36654;45.042;38.994;2023-08-12T06:52:29;101165.69;;;31.14;51.05
50684;BME280;36654;45.042;38.994;2023-08-12T06:54:55;101173.03;;;31.13;50.93
50684;BME280;36654;45.042;38.994;2023-08-12T06:57:21;101181.78;;;31.19;50.27
50684;BME280;36654;45.042;38.994;2023-08-12T06:59:46;101180.94;;;31.18;49.63
50684;BME280;36654;45.042;38.994;2023-08-12T07:02:12;101185.88;;;31.26;48.88
50684;BME280;36654;45.042;38.994;2023-08-12T07:04:37;101148.25;;;31.15;48.32
50684;BME280;36654;45.042;38.994;2023-08-12T07:07:03;101157.72;;;31.24;48.38
50684;BME280;36654;45.042;38.994;2023-08-12T07:09:29;101181.19;;;31.28;48.97
50684;BME280;36654;45.042;38.994;2023-08-12T07:11:54;101186.28;;;31.20;49.07
50684;BME280;36654;45.042;38.994;2023-08-12T07:14:20;101184.19;;;31.10;48.80
50684;BME280;36654;45.042;38.994;2023-08-12T07:16:45;101179.91;;;31.06;48.25
50684;BME280;36654;45.042;38.994;2023-08-12T07:19:19;101181.19;;;31.01;48.69
50684;BME280;36654;45.042;38.994;2023-08-12T07:21:44;101179.13;;;31.04;48.94
50684;BME280;36654;45.042;38.994;2023-08-12T07:24:13;101142.41;;;30.94;49.14
50684;BME280;36654;45.042;38.994;2023-08-12T07:26:38;101186.84;;;31.25;49.40
50684;BME280;36654;45.042;38.994;2023-08-12T07:29:04;101143.63;;;31.03;49.50
50684;BME280;36654;45.042;38.994;2023-08-12T07:31:30;101194.09;;;31.26;48.92
50684;BME280;36654;45.042;38.994;2023-08-12T07:33:55;101196.91;;;31.24;48.93
50684;BME280;36654;45.042;38.994;2023-08-12T07:36:21;101192.53;;;31.22;49.47
50684;BME280;36654;45.042;38.994;2023-08-12T07:38:47;101184.53;;;31.19;50.02
50684;BME280;36654;45.042;38.994;2023-08-12T07:41:13;101186.94;;;31.10;49.64
50684;BME280;36654;45.042;38.994;2023-08-12T07:43:38;101191.63;;;31.08;49.80
50684;BME280;36654;45.042;38.994;2023-08-12T07:46:04;101182.88;;;31.16;49.91
50684;BME280;36654;45.042;38.994;2023-08-12T07:48:30;101182.03;;;31.28;49.61
50684;BME280;36654;45.042;38.994;2023-08-12T07:50:58;101183.47;;;31.34;49.16
50684;BME280;36654;45.042;38.994;2023-08-12T07:53:24;101174.16;;;31.36;48.99
50684;BME280;36654;45.042;38.994;2023-08-12T07:55:50;101179.66;;;31.36;49.15
50684;BME280;36654;45.042;38.994;2023-08-12T07:58:16;101185.09;;;31.24;48.82
50684;BME280;36654;45.042;38.994;2023-08-12T08:00:42;101173.63;;;31.04;48.84
50684;BME280;36654;45.042;38.994;2023-08-12T08:03:07;101182.47;;;30.95;49.57
50684;BME280;36654;45.042;38.994;2023-08-12T08:05:33;101178.19;;;30.91;49.77
50684;BME280;36654;45.042;38.994;2023-08-12T08:07:59;101152.56;;;30.92;49.79
50684;BME280;36654;45.042;38.994;2023-08-12T08:10:24;101171.59;;;31.08;49.16
50684;BME280;36654;45.042;38.994;2023-08-12T08:12:50;101166.72;;;31.26;48.71
50684;BME280;36654;45.042;38.994;2023-08-12T08:15:16;101166.44;;;31.43;48.17
50684;BME280;36654;45.042;38.994;2023-08-12T08:17:42;101147.47;;;31.40;47.54
50684;BME280;36654;45.042;38.994;2023-08-12T08:20:07;101176.88;;;31.51;47.27
50684;BME280;36654;45.042;38.994;2023-08-12T08:22:33;101173.97;;;31.40;47.31
50684;BME280;36654;45.042;38.994;2023-08-12T08:24:59;101177.00;;;31.35;47.70
50684;BME280;36654;45.042;38.994;2023-08-12T08:27:24;101173.16;;;31.37;47.79
50684;BME280;36654;45.042;38.994;2023-08-12T08:29:50;101168.75;;;31.49;47.24
50684;BME280;36654;45.042;38.994;2023-08-12T08:32:16;101135.41;;;31.43;47.03
50684;BME280;36654;45.042;38.994;2023-08-12T08:34:42;101169.84;;;31.85;46.97
50684;BME280;36654;45.042;38.994;2023-08-12T08:37:08;101167.25;;;31.96;46.20
50684;BME280;36654;45.042;38.994;2023-08-12T08:39:33;101142.56;;;31.58;46.41
50684;BME280;36654;45.042;38.994;2023-08-12T08:41:59;101168.75;;;31.49;46.76
50684;BME280;36654;45.042;38.994;2023-08-12T08:44:29;101168.97;;;31.46;47.50
50684;BME280;36654;45.042;38.994;2023-08-12T08:46:55;101171.59;;;31.48;47.27
50684;BME280;36654;45.042;38.994;2023-08-12T08:49:21;101149.63;;;31.35;46.62
50684;BME280;36654;45.042;38.994;2023-08-12T08:51:49;101166.78;;;31.51;45.96
50684;BME280;36654;45.042;38.994;2023-08-12T08:54:15;101162.41;;;31.62;45.58
50684;BME280;36654;45.042;38.994;2023-08-12T08:56:40;101179.63;;;31.89;45.77
50684;BME280;36654;45.042;38.994;2023-08-12T08:59:07;101174.47;;;31.97;45.54
50684;BME280;36654;45.042;38.994;2023-08-12T09:01:34;101184.03;;;32.05;44.33
50684;BME280;36654;45.042;38.994;2023-08-12T09:04:02;101183.47;;;31.74;44.91
50684;BME280;36654;45.042;38.994;2023-08-12T09:06:29;101165.03;;;31.50;45.57
50684;BME280;36654;45.042;38.994;2023-08-12T09:08:55;101183.69;;;31.58;45.50
50684;BME280;36654;45.042;38.994;2023-08-12T09:11:21;101183.44;;;31.61;45.93
50684;BME280;36654;45.042;38.994;2023-08-12T09:13:47;101180.38;;;31.66;45.78
50684;BME280;36654;45.042;38.994;2023-08-12T09:16:15;101196.16;;;31.75;45.53
50684;BME280;36654;45.042;38.994;2023-08-12T09:18:44;101190.81;;;31.73;44.72
50684;BME280;36654;45.042;38.994;2023-08-12T09:21:10;101179.50;;;31.65;45.30
50684;BME280;36654;45.042;38.994;2023-08-12T09:23:40;101184.31;;;31.62;45.52
50684;BME280;36654;45.042;38.994;2023-08-12T09:26:17;101176.44;;;31.70;45.20
50684;BME280;36654;45.042;38.994;2023-08-12T09:28:43;101179.72;;;31.75;45.55
50684;BME280;36654;45.042;38.994;2023-08-12T09:31:29;101179.94;;;31.85;45.10
50684;BME280;36654;45.042;38.994;2023-08-12T09:34:00;101152.31;;;31.75;44.95
50684;BME280;36654;45.042;38.994;2023-08-12T09:36:28;101182.13;;;31.92;45.21
50684;BME280;36654;45.042;38.994;2023-08-12T09:38:56;101178.44;;;31.93;45.03
50684;BME280;36654;45.042;38.994;2023-08-12T09:41:23;101177.88;;;31.88;44.97
50684;BME280;36654;45.042;38.994;2023-08-12T09:43:51;101188.63;;;31.91;44.97
50684;BME280;36654;45.042;38.994;2023-08-12T09:46:18;101182.50;;;32.00;44.97
50684;BME280;36654;45.042;38.994;2023-08-12T09:48:46;101181.50;;;32.01;45.03
50684;BME280;36654;45.042;38.994;2023-08-12T09:51:12;101173.59;;;32.10;44.56
50684;BME280;36654;45.042;38.994;2023-08-12T09:53:38;101184.13;;;32.16;43.73
50684;BME280;36654;45.042;38.994;2023-08-12T09:56:07;101125.13;;;31.59;44.29
50684;BME280;36654;45.042;38.994;2023-08-12T09:58:36;101176.13;;;32.00;44.09
50684;BME280;36654;45.042;38.994;2023-08-12T10:01:05;101177.13;;;32.12;44.18
50684;BME280;36654;45.042;38.994;2023-08-12T10:03:33;101180.41;;;32.17;43.85
50684;BME280;36654;45.042;38.994;2023-08-12T10:06:00;101185.66;;;32.20;43.61
50684;BME280;36654;45.042;38.994;2023-08-12T10:08:28;101183.91;;;32.19;43.85
50684;BME280;36654;45.042;38.994;2023-08-12T10:10:54;101181.63;;;32.13;43.91
50684;BME280;36654;45.042;38.994;2023-08-12T10:13:21;101137.41;;;31.79;43.71
50684;BME280;36654;45.042;38.994;2023-08-12T10:15:48;101185.03;;;32.04;43.99
50684;BME280;36654;45.042;38.994;2023-08-12T10:18:14;101179.53;;;32.04;43.70
50684;BME280;36654;45.042;38.994;2023-08-12T10:20:42;101187.66;;;32.18;43.36
50684;BME280;36654;45.042;38.994;2023-08-12T10:23:13;101188.72;;;32.28;43.26
50684;BME280;36654;45.042;38.994;2023-08-12T10:25:41;101167.69;;;32.16;43.31
50684;BME280;36654;45.042;38.994;2023-08-12T10:28:08;101182.28;;;32.04;43.43
50684;BME280;36654;45.042;38.994;2023-08-12T10:30:34;101187.78;;;32.04;43.23
50684;BME280;36654;45.042;38.994;2023-08-12T10:33:00;101182.59;;;32.12;43.49
50684;BME280;36654;45.042;38.994;2023-08-12T10:35:45;101185.31;;;32.24;43.19
50684;BME280;36654;45.042;38.994;2023-08-12T10:38:13;101184.03;;;32.30;43.33
50684;BME280;36654;45.042;38.994;2023-08-12T10:40:40;101168.28;;;32.32;42.99
50684;BME280;36654;45.042;38.994;2023-08-12T10:43:05;101180.34;;;32.42;42.69
50684;BME280;36654;45.042;38.994;2023-08-12T10:45:47;101152.72;;;32.45;42.80
50684;BME280;36654;45.042;38.994;2023-08-12T10:48:18;101164.66;;;32.44;42.33
50684;BME280;36654;45.042;38.994;2023-08-12T10:50:48;101173.34;;;32.38;42.45
50684;BME280;36654;45.042;38.994;2023-08-12T10:53:32;101161.72;;;32.35;42.72
50684;BME280;36654;45.042;38.994;2023-08-12T10:56:00;101159.53;;;32.27;43.20
50684;BME280;36654;45.042;38.994;2023-08-12T10:58:46;101167.88;;;32.38;42.48
50684;BME280;36654;45.042;38.994;2023-08-12T11:01:19;101160.84;;;32.34;42.75
50684;BME280;36654;45.042;38.994;2023-08-12T11:03:45;101165.41;;;32.47;42.52
50684;BME280;36654;45.042;38.994;2023-08-12T11:06:11;101168.50;;;32.55;42.13
50684;BME280;36654;45.042;38.994;2023-08-12T11:08:46;101184.50;;;32.61;42.13
50684;BME280;36654;45.042;38.994;2023-08-12T11:11:24;101187.84;;;32.53;42.36
50684;BME280;36654;45.042;38.994;2023-08-12T11:13:56;101159.06;;;32.46;42.94
50684;BME280;36654;45.042;38.994;2023-08-12T11:16:36;101169.59;;;32.39;43.00
50684;BME280;36654;45.042;38.994;2023-08-12T11:19:02;101163.03;;;32.29;43.34
50684;BME280;36654;45.042;38.994;2023-08-12T11:21:29;101168.53;;;32.29;43.90
50684;BME280;36654;45.042;38.994;2023-08-12T11:23:55;101163.47;;;32.36;43.55
50684;BME280;36654;45.042;38.994;2023-08-12T11:26:23;101159.94;;;32.47;42.58
50684;BME280;36654;45.042;38.994;2023-08-12T11:28:49;101155.97;;;32.63;42.71
50684;BME280;36654;45.042;38.994;2023-08-12T11:31:15;101159.44;;;32.78;42.09
50684;BME280;36654;45.042;38.994;2023-08-12T11:33:41;101157.44;;;32.80;41.82
50684;BME280;36654;45.042;38.994;2023-08-12T11:36:12;101153.28;;;32.75;41.74
50684;BME280;36654;45.042;38.994;2023-08-12T11:38:38;101156.59;;;32.67;42.11
50684;BME280;36654;45.042;38.994;2023-08-12T11:41:05;101149.59;;;32.63;42.17
50684;BME280;36654;45.042;38.994;2023-08-12T11:43:44;101144.13;;;32.63;41.66
50684;BME280;36654;45.042;38.994;2023-08-12T11:46:10;101142.97;;;32.78;41.34
50684;BME280;36654;45.042;38.994;2023-08-12T11:48:36;101143.59;;;32.82;40.92
50684;BME280;36654;45.042;38.994;2023-08-12T11:51:01;101147.09;;;32.84;41.07
50684;BME280;36654;45.042;38.994;2023-08-12T11:53:27;101127.47;;;32.77;40.75
50684;BME280;36654;45.042;38.994;2023-08-12T11:55:54;101134.72;;;32.78;40.54
50684;BME280;36654;45.042;38.994;2023-08-12T11:58:20;101133.94;;;32.76;40.95
50684;BME280;36654;45.042;38.994;2023-08-12T12:00:49;101100.03;;;32.53;40.80
50684;BME280;36654;45.042;38.994;2023-08-12T12:03:16;101134.97;;;32.75;40.86
50684;BME280;36654;45.042;38.994;2023-08-12T12:05:42;101135.09;;;32.85;40.78
50684;BME280;36654;45.042;38.994;2023-08-12T12:08:11;101136.78;;;32.87;40.75
50684;BME280;36654;45.042;38.994;2023-08-12T12:10:37;101142.03;;;32.91;41.10
50684;BME280;36654;45.042;38.994;2023-08-12T12:13:04;101100.94;;;32.65;40.87
50684;BME280;36654;45.042;38.994;2023-08-12T12:15:31;101132.66;;;32.69;40.59
50684;BME280;36654;45.042;38.994;2023-08-12T12:17:56;101096.84;;;32.47;41.08
50684;BME280;36654;45.042;38.994;2023-08-12T12:20:22;101127.88;;;32.60;41.21
50684;BME280;36654;45.042;38.994;2023-08-12T12:22:48;101133.78;;;32.66;41.96
50684;BME280;36654;45.042;38.994;2023-08-12T12:25:16;101132.63;;;32.58;41.74
50684;BME280;36654;45.042;38.994;2023-08-12T12:27:46;101096.53;;;32.38;41.96
50684;BME280;36654;45.042;38.994;2023-08-12T12:30:13;101128.63;;;32.62;41.51
50684;BME280;36654;45.042;38.994;2023-08-12T12:32:39;101121.13;;;32.53;40.97
50684;BME280;36654;45.042;38.994;2023-08-12T12:35:06;101127.75;;;32.61;40.80
50684;BME280;36654;45.042;38.994;2023-08-12T12:37:36;101131.38;;;32.62;41.25
50684;BME280;36654;45.042;38.994;2023-08-12T12:40:02;101122.16;;;32.63;40.85
50684;BME280;36654;45.042;38.994;2023-08-12T12:42:28;101113.94;;;32.63;40.50